sensor_id;sensor_type;location;lat;lon;timestamp;P1;durP1;ratioP1;P2;durP2;ratioP2
51475;SDS011;37554;50.362;7.568;2022-12-07T00:00:48;1.67;;;1.50;;
51475;SDS011;37554;50.362;7.568;2022-12-07T00:03:14;1.90;;;1.50;;
51475;SDS011;37554;50.362;7.568;2022-12-07T00:05:39;1.67;;;1.38;;
51475;SDS011;37554;50.362;7.568;2022-12-07T00:08:05;2.53;;;1.38;;
51475;SDS011;37554;50.362;7.568;2022-12-07T00:10:32;1.70;;;1.30;;
51475;SDS011;37554;50.362;7.568;2022-12-07T00:12:59;1.67;;;1.40;;
51475;SDS011;37554;50.362;7.568;2022-12-07T00:15:24;1.95;;;1.58;;
51475;SDS011;37554;50.362;7.568;2022-12-07T00:17:50;2.08;;;1.58;;
51475;SDS011;37554;50.362;7.568;2022-12-07T00:20:15;2.03;;;1.55;;
51475;SDS011;37554;50.362;7.568;2022-12-07T00:22:41;1.70;;;1.60;;
51475;SDS011;37554;50.362;7.568;2022-12-07T00:25:07;1.75;;;1.27;;
51475;SDS011;37554;50.362;7.568;2022-12-07T00:27:32;2.53;;;1.30;;
51475;SDS011;37554;50.362;7.568;2022-12-07T00:29:58;1.77;;;1.20;;
51475;SDS011;37554;50.362;7.568;2022-12-07T00:32:23;1.55;;;1.27;;
51475;SDS011;37554;50.362;7.568;2022-12-07T00:34:49;2.20;;;1.50;;
51475;SDS011;37554;50.362;7.568;2022-12-07T00:37:15;1.70;;;1.08;;
51475;SDS011;37554;50.362;7.568;2022-12-07T00:39:40;2.33;;;1.38;;
51475;SDS011;37554;50.362;7.568;2022-12-07T00:42:06;1.70;;;1.30;;
51475;SDS011;37554;50.362;7.568;2022-12-07T00:44:31;2.95;;;1.55;;
51475;SDS011;37554;50.362;7.568;2022-12-07T00:46:57;1.92;;;1.27;;
51475;SDS011;37554;50.362;7.568;2022-12-07T00:49:22;2.13;;;1.15;;
51475;SDS011;37554;50.362;7.568;2022-12-07T00:51:48;2.42;;;1.08;;
51475;SDS011;37554;50.362;7.568;2022-12-07T00:54:14;2.72;;;1.60;;
51475;SDS011;37554;50.362;7.568;2022-12-07T00:56:40;1.80;;;1.25;;
51475;SDS011;37554;50.362;7.568;2022-12-07T00:59:05;2.10;;;1.27;;
51475;SDS011;37554;50.362;7.568;2022-12-07T01:01:32;3.08;;;1.40;;
51475;SDS011;37554;50.362;7.568;2022-12-07T01:04:00;1.60;;;1.30;;
51475;SDS011;37554;50.362;7.568;2022-12-07T01:06:26;1.80;;;1.20;;
51475;SDS011;37554;50.362;7.568;2022-12-07T01:08:52;1.20;;;1.10;;
51475;SDS011;37554;50.362;7.568;2022-12-07T01:11:20;1.30;;;1.15;;
51475;SDS011;37554;50.362;7.568;2022-12-07T01:13:49;5.80;;;1.30;;
51475;SDS011;37554;50.362;7.568;2022-12-07T01:16:16;1.90;;;1.30;;
51475;SDS011;37554;50.362;7.568;2022-12-07T01:18:44;1.75;;;1.45;;
51475;SDS011;37554;50.362;7.568;2022-12-07T01:21:12;1.30;;;1.02;;
51475;SDS011;37554;50.362;7.568;2022-12-07T01:23:43;2.08;;;1.20;;
51475;SDS011;37554;50.362;7.568;2022-12-07T01:26:11;1.80;;;1.10;;
51475;SDS011;37554;50.362;7.568;2022-12-07T01:28:38;2.20;;;1.45;;
51475;SDS011;37554;50.362;7.568;2022-12-07T01:31:08;7.53;;;1.40;;
51475;SDS011;37554;50.362;7.568;2022-12-07T01:33:40;1.92;;;1.23;;
51475;SDS011;37554;50.362;7.568;2022-12-07T01:36:21;1.73;;;0.93;;
51475;SDS011;37554;50.362;7.568;2022-12-07T01:38:49;2.38;;;1.20;;
51475;SDS011;37554;50.362;7.568;2022-12-07T01:41:17;2.78;;;1.10;;
51475;SDS011;37554;50.362;7.568;2022-12-07T01:46:53;3.17;;;1.40;;
51475;SDS011;37554;50.362;7.568;2022-12-07T01:52:07;1.90;;;1.30;;
51475;SDS011;37554;50.362;7.568;2022-12-07T01:54:48;1.48;;;1.20;;
51475;SDS011;37554;50.362;7.568;2022-12-07T01:57:16;2.25;;;1.00;;
51475;SDS011;37554;50.362;7.568;2022-12-07T01:59:43;1.73;;;1.20;;
51475;SDS011;37554;50.362;7.568;2022-12-07T02:02:13;1.42;;;1.02;;
51475;SDS011;37554;50.362;7.568;2022-12-07T02:04:44;1.80;;;1.23;;
51475;SDS011;37554;50.362;7.568;2022-12-07T02:07:10;1.80;;;1.08;;
51475;SDS011;37554;50.362;7.568;2022-12-07T02:09:36;1.55;;;1.08;;
51475;SDS011;37554;50.362;7.568;2022-12-07T02:12:02;1.83;;;1.20;;
51475;SDS011;37554;50.362;7.568;2022-12-07T02:14:28;1.30;;;1.20;;
51475;SDS011;37554;50.362;7.568;2022-12-07T02:28:01;2.90;;;1.30;;
51475;SDS011;37554;50.362;7.568;2022-12-07T02:30:42;1.50;;;1.17;;
51475;SDS011;37554;50.362;7.568;2022-12-07T02:33:16;1.02;;;0.93;;
51475;SDS011;37554;50.362;7.568;2022-12-07T02:35:54;1.05;;;0.98;;
51475;SDS011;37554;50.362;7.568;2022-12-07T02:41:04;1.30;;;1.00;;
51475;SDS011;37554;50.362;7.568;2022-12-07T02:43:38;1.98;;;1.00;;
51475;SDS011;37554;50.362;7.568;2022-12-07T02:46:11;1.63;;;1.10;;
51475;SDS011;37554;50.362;7.568;2022-12-07T02:48:40;2.42;;;1.23;;
51475;SDS011;37554;50.362;7.568;2022-12-07T02:51:07;1.48;;;0.93;;
51475;SDS011;37554;50.362;7.568;2022-12-07T02:53:37;0.93;;;0.82;;
51475;SDS011;37554;50.362;7.568;2022-12-07T02:56:16;1.65;;;1.00;;
51475;SDS011;37554;50.362;7.568;2022-12-07T03:06:51;1.55;;;1.05;;
51475;SDS011;37554;50.362;7.568;2022-12-07T03:09:32;2.47;;;1.02;;
51475;SDS011;37554;50.362;7.568;2022-12-07T03:12:22;1.10;;;0.85;;
51475;SDS011;37554;50.362;7.568;2022-12-07T03:15:08;2.40;;;1.17;;
51475;SDS011;37554;50.362;7.568;2022-12-07T03:17:40;1.08;;;0.70;;
51475;SDS011;37554;50.362;7.568;2022-12-07T03:20:09;0.90;;;0.90;;
51475;SDS011;37554;50.362;7.568;2022-12-07T03:22:38;2.45;;;1.00;;
51475;SDS011;37554;50.362;7.568;2022-12-07T03:25:08;2.50;;;1.15;;
51475;SDS011;37554;50.362;7.568;2022-12-07T03:27:43;1.05;;;0.88;;
51475;SDS011;37554;50.362;7.568;2022-12-07T03:30:27;2.10;;;0.90;;
51475;SDS011;37554;50.362;7.568;2022-12-07T03:35:51;0.82;;;0.80;;
51475;SDS011;37554;50.362;7.568;2022-12-07T03:38:42;1.38;;;0.80;;
51475;SDS011;37554;50.362;7.568;2022-12-07T03:41:18;1.33;;;1.00;;
51475;SDS011;37554;50.362;7.568;2022-12-07T03:43:54;1.40;;;1.10;;
51475;SDS011;37554;50.362;7.568;2022-12-07T03:46:31;0.93;;;0.90;;
51475;SDS011;37554;50.362;7.568;2022-12-07T03:52:32;1.75;;;1.20;;
51475;SDS011;37554;50.362;7.568;2022-12-07T03:55:09;2.42;;;0.90;;
51475;SDS011;37554;50.362;7.568;2022-12-07T03:57:44;3.08;;;0.93;;
51475;SDS011;37554;50.362;7.568;2022-12-07T04:00:12;2.05;;;0.88;;
51475;SDS011;37554;50.362;7.568;2022-12-07T04:02:39;1.17;;;0.80;;
51475;SDS011;37554;50.362;7.568;2022-12-07T04:05:05;1.65;;;0.80;;
51475;SDS011;37554;50.362;7.568;2022-12-07T04:07:31;0.88;;;0.70;;
51475;SDS011;37554;50.362;7.568;2022-12-07T04:09:56;1.15;;;0.80;;
51475;SDS011;37554;50.362;7.568;2022-12-07T04:12:22;1.27;;;1.00;;
51475;SDS011;37554;50.362;7.568;2022-12-07T04:14:48;2.50;;;0.90;;
51475;SDS011;37554;50.362;7.568;2022-12-07T04:17:14;1.42;;;0.77;;
51475;SDS011;37554;50.362;7.568;2022-12-07T04:19:39;0.95;;;0.85;;
51475;SDS011;37554;50.362;7.568;2022-12-07T04:22:05;1.10;;;0.63;;
51475;SDS011;37554;50.362;7.568;2022-12-07T04:24:31;1.00;;;0.80;;
51475;SDS011;37554;50.362;7.568;2022-12-07T04:26:57;1.20;;;0.95;;
51475;SDS011;37554;50.362;7.568;2022-12-07T04:29:23;2.08;;;1.20;;
51475;SDS011;37554;50.362;7.568;2022-12-07T04:31:49;1.42;;;1.02;;
51475;SDS011;37554;50.362;7.568;2022-12-07T04:34:16;1.30;;;0.98;;
51475;SDS011;37554;50.362;7.568;2022-12-07T04:36:42;1.55;;;0.70;;
51475;SDS011;37554;50.362;7.568;2022-12-07T04:39:13;2.47;;;1.13;;
51475;SDS011;37554;50.362;7.568;2022-12-07T04:41:47;1.30;;;0.93;;
51475;SDS011;37554;50.362;7.568;2022-12-07T04:44:13;0.93;;;0.73;;
51475;SDS011;37554;50.362;7.568;2022-12-07T04:46:40;0.95;;;0.77;;
51475;SDS011;37554;50.362;7.568;2022-12-07T04:49:06;0.82;;;0.75;;
51475;SDS011;37554;50.362;7.568;2022-12-07T04:51:31;0.80;;;0.75;;
51475;SDS011;37554;50.362;7.568;2022-12-07T04:53:57;1.67;;;0.85;;
51475;SDS011;37554;50.362;7.568;2022-12-07T04:56:23;0.93;;;0.70;;
51475;SDS011;37554;50.362;7.568;2022-12-07T04:58:49;1.02;;;0.70;;
51475;SDS011;37554;50.362;7.568;2022-12-07T05:01:16;1.50;;;0.80;;
51475;SDS011;37554;50.362;7.568;2022-12-07T05:03:42;1.13;;;0.77;;
51475;SDS011;37554;50.362;7.568;2022-12-07T05:06:08;1.17;;;0.70;;
51475;SDS011;37554;50.362;7.568;2022-12-07T05:08:35;0.98;;;0.80;;
51475;SDS011;37554;50.362;7.568;2022-12-07T05:11:01;2.67;;;0.90;;
51475;SDS011;37554;50.362;7.568;2022-12-07T05:13:27;1.90;;;1.02;;
51475;SDS011;37554;50.362;7.568;2022-12-07T05:15:53;1.50;;;0.82;;
51475;SDS011;37554;50.362;7.568;2022-12-07T05:18:19;0.68;;;0.57;;
51475;SDS011;37554;50.362;7.568;2022-12-07T05:20:44;1.00;;;0.70;;
51475;SDS011;37554;50.362;7.568;2022-12-07T05:23:10;0.90;;;0.63;;
51475;SDS011;37554;50.362;7.568;2022-12-07T05:25:36;0.60;;;0.60;;
51475;SDS011;37554;50.362;7.568;2022-12-07T05:28:02;1.13;;;0.68;;
51475;SDS011;37554;50.362;7.568;2022-12-07T05:30:28;1.17;;;0.90;;
51475;SDS011;37554;50.362;7.568;2022-12-07T05:32:54;0.80;;;0.80;;
51475;SDS011;37554;50.362;7.568;2022-12-07T05:35:20;1.02;;;0.70;;
51475;SDS011;37554;50.362;7.568;2022-12-07T05:37:45;1.27;;;0.73;;
51475;SDS011;37554;50.362;7.568;2022-12-07T05:40:12;0.73;;;0.52;;
51475;SDS011;37554;50.362;7.568;2022-12-07T05:42:39;1.30;;;0.85;;
51475;SDS011;37554;50.362;7.568;2022-12-07T05:45:05;0.70;;;0.70;;
51475;SDS011;37554;50.362;7.568;2022-12-07T05:47:31;1.00;;;0.90;;
51475;SDS011;37554;50.362;7.568;2022-12-07T05:49:57;1.83;;;0.73;;
51475;SDS011;37554;50.362;7.568;2022-12-07T05:52:23;1.35;;;0.70;;
51475;SDS011;37554;50.362;7.568;2022-12-07T05:54:49;1.20;;;0.50;;
51475;SDS011;37554;50.362;7.568;2022-12-07T05:57:14;0.93;;;0.73;;
51475;SDS011;37554;50.362;7.568;2022-12-07T05:59:40;1.02;;;0.90;;
51475;SDS011;37554;50.362;7.568;2022-12-07T06:02:10;0.70;;;0.63;;
51475;SDS011;37554;50.362;7.568;2022-12-07T06:04:39;1.03;;;0.60;;
51475;SDS011;37554;50.362;7.568;2022-12-07T06:07:06;0.75;;;0.73;;
51475;SDS011;37554;50.362;7.568;2022-12-07T06:09:33;0.47;;;0.47;;
51475;SDS011;37554;50.362;7.568;2022-12-07T06:11:59;0.80;;;0.60;;
51475;SDS011;37554;50.362;7.568;2022-12-07T06:14:44;1.33;;;0.70;;
51475;SDS011;37554;50.362;7.568;2022-12-07T06:17:10;1.20;;;0.75;;
51475;SDS011;37554;50.362;7.568;2022-12-07T06:19:37;2.80;;;0.95;;
51475;SDS011;37554;50.362;7.568;2022-12-07T06:22:03;0.80;;;0.60;;
51475;SDS011;37554;50.362;7.568;2022-12-07T06:24:29;1.02;;;0.70;;
51475;SDS011;37554;50.362;7.568;2022-12-07T06:26:56;5.57;;;0.70;;
51475;SDS011;37554;50.362;7.568;2022-12-07T06:29:21;0.70;;;0.57;;
51475;SDS011;37554;50.362;7.568;2022-12-07T06:31:47;0.50;;;0.50;;
51475;SDS011;37554;50.362;7.568;2022-12-07T06:34:14;0.98;;;0.57;;
51475;SDS011;37554;50.362;7.568;2022-12-07T06:36:42;1.05;;;0.68;;
51475;SDS011;37554;50.362;7.568;2022-12-07T06:39:08;1.25;;;0.65;;
51475;SDS011;37554;50.362;7.568;2022-12-07T06:41:37;3.20;;;0.70;;
51475;SDS011;37554;50.362;7.568;2022-12-07T06:44:04;0.68;;;0.55;;
51475;SDS011;37554;50.362;7.568;2022-12-07T06:46:31;1.15;;;0.88;;
51475;SDS011;37554;50.362;7.568;2022-12-07T06:48:57;0.85;;;0.77;;
51475;SDS011;37554;50.362;7.568;2022-12-07T06:51:22;1.13;;;0.70;;
51475;SDS011;37554;50.362;7.568;2022-12-07T06:53:48;0.68;;;0.55;;
51475;SDS011;37554;50.362;7.568;2022-12-07T06:56:14;0.80;;;0.60;;
51475;SDS011;37554;50.362;7.568;2022-12-07T06:58:40;0.90;;;0.73;;
51475;SDS011;37554;50.362;7.568;2022-12-07T07:01:12;3.17;;;0.88;;
51475;SDS011;37554;50.362;7.568;2022-12-07T07:03:39;4.65;;;0.70;;
51475;SDS011;37554;50.362;7.568;2022-12-07T07:06:05;1.17;;;0.70;;
51475;SDS011;37554;50.362;7.568;2022-12-07T07:08:32;2.75;;;0.70;;
51475;SDS011;37554;50.362;7.568;2022-12-07T07:11:01;1.40;;;0.65;;
51475;SDS011;37554;50.362;7.568;2022-12-07T07:13:27;1.20;;;0.88;;
51475;SDS011;37554;50.362;7.568;2022-12-07T07:15:53;1.00;;;0.80;;
51475;SDS011;37554;50.362;7.568;2022-12-07T07:18:19;0.85;;;0.57;;
51475;SDS011;37554;50.362;7.568;2022-12-07T07:20:45;3.83;;;1.00;;
51475;SDS011;37554;50.362;7.568;2022-12-07T07:23:10;1.80;;;0.80;;
51475;SDS011;37554;50.362;7.568;2022-12-07T07:25:36;2.47;;;1.58;;
51475;SDS011;37554;50.362;7.568;2022-12-07T07:28:02;1.90;;;1.70;;
51475;SDS011;37554;50.362;7.568;2022-12-07T07:30:28;3.53;;;1.90;;
51475;SDS011;37554;50.362;7.568;2022-12-07T07:32:57;2.08;;;1.80;;
51475;SDS011;37554;50.362;7.568;2022-12-07T07:35:24;5.57;;;1.63;;
51475;SDS011;37554;50.362;7.568;2022-12-07T07:37:50;3.67;;;1.27;;
51475;SDS011;37554;50.362;7.568;2022-12-07T07:40:16;5.28;;;2.10;;
51475;SDS011;37554;50.362;7.568;2022-12-07T07:42:41;5.55;;;2.45;;
51475;SDS011;37554;50.362;7.568;2022-12-07T07:45:07;3.88;;;2.60;;
51475;SDS011;37554;50.362;7.568;2022-12-07T07:47:33;4.43;;;2.78;;
51475;SDS011;37554;50.362;7.568;2022-12-07T07:49:59;4.30;;;2.90;;
51475;SDS011;37554;50.362;7.568;2022-12-07T07:52:25;5.80;;;3.40;;
51475;SDS011;37554;50.362;7.568;2022-12-07T07:54:50;6.13;;;3.72;;
51475;SDS011;37554;50.362;7.568;2022-12-07T07:57:16;4.55;;;2.92;;
51475;SDS011;37554;50.362;7.568;2022-12-07T07:59:42;5.28;;;3.42;;
51475;SDS011;37554;50.362;7.568;2022-12-07T08:02:15;7.78;;;3.47;;
51475;SDS011;37554;50.362;7.568;2022-12-07T08:04:43;6.65;;;3.45;;
51475;SDS011;37554;50.362;7.568;2022-12-07T08:07:09;7.25;;;3.45;;
51475;SDS011;37554;50.362;7.568;2022-12-07T08:09:35;7.00;;;3.55;;
51475;SDS011;37554;50.362;7.568;2022-12-07T08:12:00;6.63;;;3.40;;
51475;SDS011;37554;50.362;7.568;2022-12-07T08:14:26;6.93;;;3.33;;
51475;SDS011;37554;50.362;7.568;2022-12-07T08:16:53;5.05;;;3.38;;
51475;SDS011;37554;50.362;7.568;2022-12-07T08:19:19;6.20;;;3.38;;
51475;SDS011;37554;50.362;7.568;2022-12-07T08:21:45;5.75;;;3.15;;
51475;SDS011;37554;50.362;7.568;2022-12-07T08:24:10;6.50;;;3.08;;
51475;SDS011;37554;50.362;7.568;2022-12-07T08:26:36;4.55;;;3.17;;
51475;SDS011;37554;50.362;7.568;2022-12-07T08:29:02;9.25;;;3.40;;
51475;SDS011;37554;50.362;7.568;2022-12-07T08:31:27;5.85;;;3.15;;
51475;SDS011;37554;50.362;7.568;2022-12-07T08:33:53;6.20;;;3.00;;
51475;SDS011;37554;50.362;7.568;2022-12-07T08:36:19;7.03;;;3.05;;
51475;SDS011;37554;50.362;7.568;2022-12-07T08:38:46;4.05;;;2.88;;
51475;SDS011;37554;50.362;7.568;2022-12-07T08:41:12;4.03;;;2.80;;
51475;SDS011;37554;50.362;7.568;2022-12-07T08:43:37;4.40;;;2.92;;
51475;SDS011;37554;50.362;7.568;2022-12-07T08:48:35;3.78;;;2.50;;
51475;SDS011;37554;50.362;7.568;2022-12-07T08:51:08;4.88;;;3.05;;
51475;SDS011;37554;50.362;7.568;2022-12-07T08:53:35;4.95;;;2.97;;
51475;SDS011;37554;50.362;7.568;2022-12-07T08:56:03;7.65;;;2.60;;
51475;SDS011;37554;50.362;7.568;2022-12-07T08:58:29;3.72;;;2.40;;
51475;SDS011;37554;50.362;7.568;2022-12-07T09:00:55;4.47;;;2.65;;
51475;SDS011;37554;50.362;7.568;2022-12-07T09:03:21;4.95;;;2.67;;
51475;SDS011;37554;50.362;7.568;2022-12-07T09:05:47;4.78;;;2.40;;
51475;SDS011;37554;50.362;7.568;2022-12-07T09:08:12;3.80;;;2.40;;
51475;SDS011;37554;50.362;7.568;2022-12-07T09:10:38;4.05;;;3.05;;
51475;SDS011;37554;50.362;7.568;2022-12-07T09:13:04;4.50;;;2.47;;
51475;SDS011;37554;50.362;7.568;2022-12-07T09:15:29;3.42;;;2.40;;
51475;SDS011;37554;50.362;7.568;2022-12-07T09:17:56;3.38;;;2.38;;
51475;SDS011;37554;50.362;7.568;2022-12-07T09:20:22;3.25;;;2.53;;
51475;SDS011;37554;50.362;7.568;2022-12-07T09:22:47;3.47;;;2.55;;
51475;SDS011;37554;50.362;7.568;2022-12-07T09:25:13;3.70;;;2.50;;
51475;SDS011;37554;50.362;7.568;2022-12-07T09:27:39;3.72;;;2.25;;
51475;SDS011;37554;50.362;7.568;2022-12-07T09:30:05;3.10;;;2.30;;
51475;SDS011;37554;50.362;7.568;2022-12-07T09:32:31;5.03;;;2.53;;
51475;SDS011;37554;50.362;7.568;2022-12-07T09:34:56;3.03;;;2.35;;
51475;SDS011;37554;50.362;7.568;2022-12-07T09:37:22;3.60;;;2.45;;
51475;SDS011;37554;50.362;7.568;2022-12-07T09:39:48;2.25;;;1.98;;
51475;SDS011;37554;50.362;7.568;2022-12-07T09:44:59;3.05;;;2.20;;
51475;SDS011;37554;50.362;7.568;2022-12-07T09:47:26;4.55;;;2.60;;
51475;SDS011;37554;50.362;7.568;2022-12-07T09:49:55;4.05;;;2.38;;
51475;SDS011;37554;50.362;7.568;2022-12-07T09:52:32;2.88;;;2.10;;
51475;SDS011;37554;50.362;7.568;2022-12-07T09:54:58;6.43;;;2.03;;
51475;SDS011;37554;50.362;7.568;2022-12-07T09:57:32;4.88;;;2.20;;
51475;SDS011;37554;50.362;7.568;2022-12-07T10:00:04;2.28;;;1.92;;
51475;SDS011;37554;50.362;7.568;2022-12-07T10:02:55;3.67;;;1.95;;
51475;SDS011;37554;50.362;7.568;2022-12-07T10:05:24;2.65;;;2.05;;
51475;SDS011;37554;50.362;7.568;2022-12-07T10:07:56;3.80;;;2.10;;
51475;SDS011;37554;50.362;7.568;2022-12-07T10:10:25;3.95;;;2.15;;
51475;SDS011;37554;50.362;7.568;2022-12-07T10:23:39;3.00;;;1.80;;
51475;SDS011;37554;50.362;7.568;2022-12-07T10:26:19;5.43;;;1.92;;
51475;SDS011;37554;50.362;7.568;2022-12-07T10:28:45;2.70;;;1.73;;
51475;SDS011;37554;50.362;7.568;2022-12-07T10:31:15;5.22;;;2.75;;
51475;SDS011;37554;50.362;7.568;2022-12-07T10:34:00;16.03;;;3.50;;
51475;SDS011;37554;50.362;7.568;2022-12-07T10:36:30;20.27;;;5.40;;
51475;SDS011;37554;50.362;7.568;2022-12-07T10:41:54;25.48;;;6.10;;
51475;SDS011;37554;50.362;7.568;2022-12-07T10:44:21;24.15;;;6.20;;
51475;SDS011;37554;50.362;7.568;2022-12-07T10:49:40;21.42;;;5.70;;
51475;SDS011;37554;50.362;7.568;2022-12-07T10:52:27;18.08;;;5.82;;
51475;SDS011;37554;50.362;7.568;2022-12-07T10:55:02;22.13;;;5.88;;
51475;SDS011;37554;50.362;7.568;2022-12-07T10:57:43;19.23;;;5.50;;
51475;SDS011;37554;50.362;7.568;2022-12-07T11:00:24;18.50;;;5.70;;
51475;SDS011;37554;50.362;7.568;2022-12-07T11:06:14;15.93;;;4.65;;
51475;SDS011;37554;50.362;7.568;2022-12-07T11:08:47;16.30;;;4.80;;
51475;SDS011;37554;50.362;7.568;2022-12-07T11:11:24;18.58;;;5.20;;
51475;SDS011;37554;50.362;7.568;2022-12-07T11:13:59;12.50;;;4.70;;
51475;SDS011;37554;50.362;7.568;2022-12-07T11:19:26;12.07;;;4.40;;
51475;SDS011;37554;50.362;7.568;2022-12-07T11:21:58;10.55;;;3.95;;
51475;SDS011;37554;50.362;7.568;2022-12-07T11:30:09;9.55;;;3.78;;
51475;SDS011;37554;50.362;7.568;2022-12-07T11:38:10;12.32;;;3.75;;
51475;SDS011;37554;50.362;7.568;2022-12-07T11:40:39;12.23;;;4.00;;
51475;SDS011;37554;50.362;7.568;2022-12-07T11:48:38;9.90;;;3.50;;
51475;SDS011;37554;50.362;7.568;2022-12-07T11:51:08;9.95;;;3.65;;
51475;SDS011;37554;50.362;7.568;2022-12-07T11:53:40;16.60;;;4.32;;
51475;SDS011;37554;50.362;7.568;2022-12-07T11:56:19;10.70;;;3.30;;
51475;SDS011;37554;50.362;7.568;2022-12-07T12:03:47;8.70;;;3.55;;
51475;SDS011;37554;50.362;7.568;2022-12-07T12:06:14;8.90;;;2.75;;
51475;SDS011;37554;50.362;7.568;2022-12-07T12:08:47;12.30;;;3.63;;
51475;SDS011;37554;50.362;7.568;2022-12-07T12:11:35;8.43;;;2.75;;
51475;SDS011;37554;50.362;7.568;2022-12-07T12:22:58;7.07;;;2.22;;
51475;SDS011;37554;50.362;7.568;2022-12-07T12:26:17;8.02;;;2.85;;
51475;SDS011;37554;50.362;7.568;2022-12-07T12:31:04;5.78;;;2.50;;
51475;SDS011;37554;50.362;7.568;2022-12-07T12:33:36;5.63;;;2.30;;
51475;SDS011;37554;50.362;7.568;2022-12-07T12:36:18;5.88;;;2.40;;
51475;SDS011;37554;50.362;7.568;2022-12-07T12:44:00;5.95;;;2.20;;
51475;SDS011;37554;50.362;7.568;2022-12-07T12:51:49;6.63;;;2.50;;
51475;SDS011;37554;50.362;7.568;2022-12-07T12:54:32;4.50;;;2.10;;
51475;SDS011;37554;50.362;7.568;2022-12-07T13:02:15;5.18;;;2.17;;
51475;SDS011;37554;50.362;7.568;2022-12-07T13:04:53;5.45;;;2.15;;
51475;SDS011;37554;50.362;7.568;2022-12-07T13:10:25;5.03;;;2.03;;
51475;SDS011;37554;50.362;7.568;2022-12-07T13:15:40;2.88;;;1.33;;
51475;SDS011;37554;50.362;7.568;2022-12-07T13:23:08;5.00;;;2.10;;
51475;SDS011;37554;50.362;7.568;2022-12-07T13:28:18;5.00;;;1.77;;
51475;SDS011;37554;50.362;7.568;2022-12-07T13:30:49;4.15;;;1.73;;
51475;SDS011;37554;50.362;7.568;2022-12-07T13:33:28;4.30;;;1.58;;
51475;SDS011;37554;50.362;7.568;2022-12-07T13:35:55;4.82;;;1.98;;
51475;SDS011;37554;50.362;7.568;2022-12-07T13:38:26;5.55;;;1.50;;
51475;SDS011;37554;50.362;7.568;2022-12-07T13:49:15;4.78;;;1.73;;
51475;SDS011;37554;50.362;7.568;2022-12-07T13:51:47;3.90;;;1.48;;
51475;SDS011;37554;50.362;7.568;2022-12-07T13:54:14;4.68;;;1.58;;
51475;SDS011;37554;50.362;7.568;2022-12-07T13:56:40;5.38;;;1.42;;
51475;SDS011;37554;50.362;7.568;2022-12-07T14:01:48;4.00;;;1.70;;
51475;SDS011;37554;50.362;7.568;2022-12-07T14:06:50;4.15;;;1.80;;
51475;SDS011;37554;50.362;7.568;2022-12-07T14:09:17;4.32;;;1.40;;
51475;SDS011;37554;50.362;7.568;2022-12-07T14:11:49;1.80;;;1.08;;
51475;SDS011;37554;50.362;7.568;2022-12-07T14:14:18;3.20;;;1.60;;
51475;SDS011;37554;50.362;7.568;2022-12-07T14:16:56;3.95;;;1.13;;
51475;SDS011;37554;50.362;7.568;2022-12-07T14:19:40;2.42;;;1.27;;
51475;SDS011;37554;50.362;7.568;2022-12-07T14:22:06;3.65;;;1.50;;
51475;SDS011;37554;50.362;7.568;2022-12-07T14:24:42;4.43;;;1.30;;
51475;SDS011;37554;50.362;7.568;2022-12-07T14:27:21;4.15;;;1.60;;
51475;SDS011;37554;50.362;7.568;2022-12-07T14:29:50;3.10;;;1.20;;
51475;SDS011;37554;50.362;7.568;2022-12-07T14:32:26;3.47;;;1.50;;
51475;SDS011;37554;50.362;7.568;2022-12-07T14:34:58;2.17;;;1.17;;
51475;SDS011;37554;50.362;7.568;2022-12-07T14:37:38;3.17;;;1.20;;
51475;SDS011;37554;50.362;7.568;2022-12-07T14:40:05;2.60;;;1.50;;
51475;SDS011;37554;50.362;7.568;2022-12-07T14:42:32;2.50;;;1.30;;
51475;SDS011;37554;50.362;7.568;2022-12-07T14:44:59;2.38;;;1.33;;
51475;SDS011;37554;50.362;7.568;2022-12-07T14:47:25;2.70;;;1.27;;
51475;SDS011;37554;50.362;7.568;2022-12-07T14:49:51;2.50;;;1.30;;
51475;SDS011;37554;50.362;7.568;2022-12-07T14:52:21;2.95;;;1.10;;
51475;SDS011;37554;50.362;7.568;2022-12-07T14:54:51;2.20;;;1.08;;
51475;SDS011;37554;50.362;7.568;2022-12-07T14:57:17;1.85;;;0.90;;
51475;SDS011;37554;50.362;7.568;2022-12-07T14:59:42;3.15;;;1.25;;
51475;SDS011;37554;50.362;7.568;2022-12-07T15:02:09;2.88;;;1.20;;
51475;SDS011;37554;50.362;7.568;2022-12-07T15:04:37;2.80;;;1.10;;
51475;SDS011;37554;50.362;7.568;2022-12-07T15:07:03;2.83;;;1.42;;
51475;SDS011;37554;50.362;7.568;2022-12-07T15:09:29;2.80;;;1.17;;
51475;SDS011;37554;50.362;7.568;2022-12-07T15:11:55;3.22;;;1.20;;
51475;SDS011;37554;50.362;7.568;2022-12-07T15:14:21;3.63;;;1.20;;
51475;SDS011;37554;50.362;7.568;2022-12-07T15:16:46;3.40;;;1.23;;
51475;SDS011;37554;50.362;7.568;2022-12-07T15:19:13;2.95;;;1.20;;
51475;SDS011;37554;50.362;7.568;2022-12-07T15:21:42;2.65;;;1.00;;
51475;SDS011;37554;50.362;7.568;2022-12-07T15:24:09;2.88;;;1.13;;
51475;SDS011;37554;50.362;7.568;2022-12-07T15:26:35;2.25;;;1.02;;
51475;SDS011;37554;50.362;7.568;2022-12-07T15:29:01;3.60;;;1.08;;
51475;SDS011;37554;50.362;7.568;2022-12-07T15:31:27;2.20;;;0.90;;
51475;SDS011;37554;50.362;7.568;2022-12-07T15:33:52;0.85;;;0.63;;
51475;SDS011;37554;50.362;7.568;2022-12-07T15:36:22;4.68;;;1.25;;
51475;SDS011;37554;50.362;7.568;2022-12-07T15:38:49;3.97;;;1.20;;
51475;SDS011;37554;50.362;7.568;2022-12-07T15:41:16;1.85;;;0.95;;
51475;SDS011;37554;50.362;7.568;2022-12-07T15:43:41;2.15;;;1.02;;
51475;SDS011;37554;50.362;7.568;2022-12-07T15:46:32;3.03;;;0.98;;
51475;SDS011;37554;50.362;7.568;2022-12-07T15:49:00;2.28;;;1.00;;
51475;SDS011;37554;50.362;7.568;2022-12-07T15:51:26;3.60;;;1.10;;
51475;SDS011;37554;50.362;7.568;2022-12-07T15:53:52;2.30;;;0.90;;
51475;SDS011;37554;50.362;7.568;2022-12-07T15:56:18;3.22;;;1.25;;
51475;SDS011;37554;50.362;7.568;2022-12-07T15:58:44;2.45;;;0.93;;
51475;SDS011;37554;50.362;7.568;2022-12-07T16:01:13;2.85;;;1.13;;
51475;SDS011;37554;50.362;7.568;2022-12-07T16:03:39;3.88;;;1.13;;
51475;SDS011;37554;50.362;7.568;2022-12-07T16:06:05;1.73;;;0.75;;
51475;SDS011;37554;50.362;7.568;2022-12-07T16:08:31;1.40;;;0.90;;
51475;SDS011;37554;50.362;7.568;2022-12-07T16:10:57;2.42;;;1.10;;
51475;SDS011;37554;50.362;7.568;2022-12-07T16:13:23;2.15;;;1.00;;
51475;SDS011;37554;50.362;7.568;2022-12-07T16:15:48;1.80;;;0.90;;
51475;SDS011;37554;50.362;7.568;2022-12-07T16:18:14;2.42;;;1.00;;
51475;SDS011;37554;50.362;7.568;2022-12-07T16:20:40;1.95;;;1.00;;
51475;SDS011;37554;50.362;7.568;2022-12-07T16:23:06;3.10;;;1.00;;
51475;SDS011;37554;50.362;7.568;2022-12-07T16:25:32;1.25;;;0.70;;
51475;SDS011;37554;50.362;7.568;2022-12-07T16:27:58;2.10;;;0.98;;
51475;SDS011;37554;50.362;7.568;2022-12-07T16:30:23;2.20;;;1.05;;
51475;SDS011;37554;50.362;7.568;2022-12-07T16:32:50;3.13;;;1.10;;
51475;SDS011;37554;50.362;7.568;2022-12-07T16:35:16;1.42;;;0.82;;
51475;SDS011;37554;50.362;7.568;2022-12-07T16:37:42;2.03;;;0.90;;
51475;SDS011;37554;50.362;7.568;2022-12-07T16:40:08;2.42;;;0.93;;
51475;SDS011;37554;50.362;7.568;2022-12-07T16:42:35;1.92;;;0.90;;
51475;SDS011;37554;50.362;7.568;2022-12-07T16:45:02;0.85;;;0.68;;
51475;SDS011;37554;50.362;7.568;2022-12-07T16:47:29;1.13;;;0.85;;
51475;SDS011;37554;50.362;7.568;2022-12-07T16:49:54;1.13;;;0.85;;
51475;SDS011;37554;50.362;7.568;2022-12-07T16:52:20;3.00;;;1.00;;
51475;SDS011;37554;50.362;7.568;2022-12-07T16:54:49;2.33;;;0.85;;
51475;SDS011;37554;50.362;7.568;2022-12-07T16:57:16;2.17;;;0.70;;
51475;SDS011;37554;50.362;7.568;2022-12-07T16:59:42;1.55;;;0.65;;
51475;SDS011;37554;50.362;7.568;2022-12-07T17:02:11;3.72;;;0.88;;
51475;SDS011;37554;50.362;7.568;2022-12-07T17:04:37;1.00;;;0.68;;
51475;SDS011;37554;50.362;7.568;2022-12-07T17:07:07;2.25;;;0.80;;
51475;SDS011;37554;50.362;7.568;2022-12-07T17:09:33;1.67;;;1.02;;
51475;SDS011;37554;50.362;7.568;2022-12-07T17:11:59;1.48;;;0.98;;
51475;SDS011;37554;50.362;7.568;2022-12-07T17:14:25;4.47;;;1.00;;